Time;durP1;ratioP1;P1;durP2;ratioP2;P2;SDS_P1;SDS_P2;PMS_P1;PMS_P2;Temp;Humidity;BMP_temperature;BMP_pressure;BME280_temperature;BME280_humidity;BME280_pressure;Samples;Min_cycle;Max_cycle;Signal;HPM_P1;HPM_P2
2021/10/28 00:12:33;;;;;;;8.00;5.20;;;9.70;99.90;;;;;;4876219;29;20041;-86
2021/10/28 00:15:04;;;;;;;5.82;4.72;;;9.60;99.90;;;;;;4845185;29;20052;-87
2021/10/28 00:17:46;;;;;;;9.35;5.65;;;9.60;99.90;;;;;;4847980;29;20477;-87
2021/10/28 00:20:15;;;;;;;8.05;5.13;;;9.50;99.90;;;;;;4831147;29;20409;-87
2021/10/28 00:22:42;;;;;;;8.15;5.32;;;9.50;99.90;;;;;;4845580;29;20049;-80
2021/10/28 00:25:09;;;;;;;8.65;5.22;;;9.50;99.90;;;;;;4832068;29;20048;-78
2021/10/28 00:27:35;;;;;;;4.95;4.13;;;9.50;99.90;;;;;;4863705;29;20056;-77
2021/10/28 00:30:02;;;;;;;8.02;5.43;;;9.50;99.90;;;;;;4855709;29;20038;-78
2021/10/28 00:32:32;;;;;;;5.57;4.90;;;9.40;99.90;;;;;;4840945;29;20041;-75
2021/10/28 00:34:58;;;;;;;7.32;4.80;;;9.50;99.90;;;;;;4842629;29;20056;-77
2021/10/28 00:37:25;;;;;;;7.10;5.18;;;9.40;99.90;;;;;;4862024;29;20033;-78
2021/10/28 00:39:53;;;;;;;6.10;5.03;;;9.40;99.90;;;;;;4832721;29;20052;-78
2021/10/28 00:42:20;;;;;;;6.38;5.38;;;9.40;99.90;;;;;;4838727;29;20047;-79
2021/10/28 00:44:46;;;;;;;6.30;4.85;;;9.30;99.90;;;;;;4833296;29;20045;-78
2021/10/28 00:47:13;;;;;;;8.18;6.10;;;9.30;99.90;;;;;;4867372;29;20410;-78
2021/10/28 00:49:41;;;;;;;9.55;5.18;;;9.30;99.90;;;;;;4834064;29;20049;-78
2021/10/28 00:52:08;;;;;;;9.80;5.45;;;9.30;99.90;;;;;;4829778;29;20057;-77
2021/10/28 00:54:34;;;;;;;7.30;4.78;;;9.20;99.90;;;;;;4849367;29;20041;-77
2021/10/28 00:57:02;;;;;;;6.57;4.90;;;9.20;99.90;;;;;;4847460;29;20401;-77
2021/10/28 00:59:28;;;;;;;8.35;5.05;;;9.20;99.90;;;;;;4848937;29;20057;-77
2021/10/28 01:01:55;;;;;;;7.03;5.05;;;9.10;99.90;;;;;;4835275;29;20051;-77
2021/10/28 01:04:21;;;;;;;10.82;5.32;;;9.10;99.90;;;;;;4847432;29;20489;-77
2021/10/28 01:06:48;;;;;;;6.75;5.20;;;9.10;99.90;;;;;;4833075;29;20045;-77
2021/10/28 01:09:15;;;;;;;6.75;4.57;;;9.00;99.90;;;;;;4851789;29;20053;-77
2021/10/28 01:11:42;;;;;;;9.95;5.50;;;9.00;99.90;;;;;;4862021;29;20036;-78
2021/10/28 01:14:09;;;;;;;8.40;5.90;;;9.00;99.90;;;;;;4845307;29;20034;-80
2021/10/28 01:16:36;;;;;;;8.43;5.43;;;9.00;99.90;;;;;;4859992;29;20054;-78
2021/10/28 01:19:03;;;;;;;7.15;5.30;;;8.90;99.90;;;;;;4850667;29;20049;-77
2021/10/28 01:21:29;;;;;;;7.40;4.95;;;8.90;99.90;;;;;;4838648;29;20045;-78
2021/10/28 01:23:56;;;;;;;7.70;5.32;;;8.90;99.90;;;;;;4858716;29;20386;-78
2021/10/28 01:26:23;;;;;;;7.53;5.13;;;8.80;99.90;;;;;;4845733;29;20482;-78
2021/10/28 01:29:01;;;;;;;7.80;5.53;;;8.80;99.90;;;;;;4844827;29;20052;-78
2021/10/28 01:31:31;;;;;;;8.23;6.38;;;8.80;99.90;;;;;;4859963;29;20037;-78
2021/10/28 01:33:59;;;;;;;13.63;9.02;;;8.80;99.90;;;;;;4859691;29;20084;-79
2021/10/28 01:36:26;;;;;;;13.43;9.75;;;8.80;99.90;;;;;;4852030;29;20041;-77
2021/10/28 01:38:54;;;;;;;13.23;9.55;;;8.80;99.90;;;;;;4833151;29;20056;-77
2021/10/28 01:41:22;;;;;;;11.35;8.07;;;8.70;99.90;;;;;;4834492;29;20041;-77
2021/10/28 01:43:48;;;;;;;11.15;7.35;;;8.70;99.90;;;;;;4860280;29;20041;-77
2021/10/28 01:46:15;;;;;;;9.95;7.65;;;8.70;99.90;;;;;;4863237;29;20045;-77
2021/10/28 01:48:42;;;;;;;11.23;8.07;;;8.70;99.90;;;;;;4859813;29;20054;-77
2021/10/28 01:51:11;;;;;;;12.73;7.63;;;8.70;99.90;;;;;;4839425;29;20033;-77
2021/10/28 01:53:42;;;;;;;10.80;7.72;;;8.60;99.90;;;;;;4861258;29;20045;-78
2021/10/28 01:56:09;;;;;;;10.02;6.97;;;8.60;99.90;;;;;;4865365;29;20041;-77
2021/10/28 01:58:36;;;;;;;9.18;7.15;;;8.60;99.90;;;;;;4864654;29;20635;-77
2021/10/28 02:01:06;;;;;;;9.07;7.00;;;8.60;99.90;;;;;;4834950;29;20774;-77
2021/10/28 02:03:33;;;;;;;7.07;5.93;;;8.60;99.90;;;;;;4866366;29;20034;-77
2021/10/28 02:06:01;;;;;;;8.65;6.75;;;8.60;99.90;;;;;;4862587;29;20034;-77
2021/10/28 02:08:27;;;;;;;7.47;5.32;;;8.50;99.90;;;;;;4862101;29;20485;-87
2021/10/28 02:10:54;;;;;;;6.45;5.80;;;8.50;99.90;;;;;;4857395;29;20045;-86
2021/10/28 02:13:25;;;;;;;8.32;5.93;;;8.40;99.90;;;;;;4829761;29;20048;-87
2021/10/28 02:15:51;;;;;;;6.30;4.97;;;8.40;99.90;;;;;;4860280;29;20032;-87
2021/10/28 02:18:18;;;;;;;7.93;5.68;;;8.40;99.90;;;;;;4842854;29;20039;-87
2021/10/28 02:20:44;;;;;;;7.97;6.95;;;8.40;99.90;;;;;;4826960;29;20056;-78
2021/10/28 02:23:10;;;;;;;9.15;5.93;;;8.40;99.90;;;;;;4831544;29;20041;-78
2021/10/28 02:25:37;;;;;;;7.43;5.95;;;8.40;99.90;;;;;;4816278;29;20060;-79
2021/10/28 02:28:05;;;;;;;10.15;7.15;;;8.40;99.90;;;;;;4848023;29;20111;-78
2021/10/28 02:30:32;;;;;;;8.10;6.30;;;8.30;99.90;;;;;;4843652;29;20037;-78
2021/10/28 02:32:59;;;;;;;8.93;6.47;;;8.40;99.90;;;;;;4830288;29;20136;-78
2021/10/28 02:35:25;;;;;;;7.30;5.43;;;8.30;99.90;;;;;;4830205;29;20033;-78
2021/10/28 02:37:52;;;;;;;7.47;5.72;;;8.30;99.90;;;;;;4833641;29;20614;-79
2021/10/28 02:40:18;;;;;;;8.65;6.57;;;8.30;99.90;;;;;;4847830;29;20037;-78
2021/10/28 02:42:45;;;;;;;9.57;6.65;;;8.30;99.90;;;;;;4829217;29;20052;-78
2021/10/28 02:45:11;;;;;;;11.27;6.32;;;8.30;99.90;;;;;;4832109;29;20049;-79
2021/10/28 02:47:39;;;;;;;7.20;5.45;;;8.30;99.90;;;;;;4847668;29;20576;-78
2021/10/28 02:50:06;;;;;;;7.18;5.53;;;8.30;99.90;;;;;;4834088;29;20041;-78
2021/10/28 02:52:34;;;;;;;7.30;5.22;;;8.30;99.90;;;;;;4843777;29;20506;-78
2021/10/28 02:55:04;;;;;;;8.40;6.15;;;8.30;99.90;;;;;;4853086;29;20041;-78
2021/10/28 02:57:31;;;;;;;9.25;6.20;;;8.20;99.90;;;;;;4831316;29;20065;-78
2021/10/28 02:59:58;;;;;;;8.80;6.25;;;8.20;99.90;;;;;;4843543;29;20504;-77
2021/10/28 03:02:24;;;;;;;9.07;5.57;;;8.20;99.90;;;;;;4847573;29;20048;-78
2021/10/28 03:04:51;;;;;;;8.70;6.55;;;8.20;99.90;;;;;;4841339;29;20438;-78
2021/10/28 03:07:18;;;;;;;8.30;6.13;;;8.20;99.90;;;;;;4857482;29;20449;-77
2021/10/28 03:09:44;;;;;;;11.98;7.15;;;8.10;99.90;;;;;;4829295;29;20037;-77
2021/10/28 03:12:11;;;;;;;10.68;8.23;;;8.10;99.90;;;;;;4828576;29;20433;-78
2021/10/28 03:14:43;;;;;;;11.77;7.22;;;8.10;99.90;;;;;;4861140;29;20037;-77
2021/10/28 03:28:01;;;;;;;9.45;6.85;;;8.10;99.90;;;;;;4858304;29;20036;-87
2021/10/28 03:30:27;;;;;;;9.30;7.63;;;8.10;99.90;;;;;;4840890;29;20420;-86
2021/10/28 03:32:54;;;;;;;11.90;7.38;;;8.10;99.90;;;;;;4828410;29;20274;-86
2021/10/28 03:35:21;;;;;;;10.27;7.57;;;8.10;99.90;;;;;;4857621;29;20049;-87
2021/10/28 03:38:03;;;;;;;12.57;9.57;;;8.10;99.90;;;;;;4858460;29;20048;-87
2021/10/28 03:54:51;;;;;;;9.90;8.07;;;8.10;99.90;;;;;;4862705;29;20163;-87
2021/10/28 04:04:57;;;;;;;13.52;8.07;;;8.10;99.90;;;;;;4863765;29;20094;-86
2021/10/28 04:19:04;;;;;;;9.52;6.35;;;8.00;99.90;;;;;;4859987;29;20486;-85
2021/10/28 04:29:03;;;;;;;8.40;7.07;;;7.90;99.90;;;;;;4860248;29;20042;-87
2021/10/28 04:31:36;;;;;;;8.43;7.05;;;7.90;99.90;;;;;;4844515;29;20485;-88
2021/10/28 04:34:08;;;;;;;9.80;6.70;;;7.90;99.90;;;;;;4844141;29;20041;-88
2021/10/28 04:36:36;;;;;;;10.80;7.20;;;7.90;99.90;;;;;;4844558;29;20109;-88
2021/10/28 04:39:08;;;;;;;10.80;6.43;;;7.90;99.90;;;;;;4845962;29;20037;-85
2021/10/28 04:41:38;;;;;;;12.02;7.22;;;7.90;99.90;;;;;;4859517;29;20037;-88
2021/10/28 04:44:11;;;;;;;13.32;8.00;;;7.90;99.90;;;;;;4844146;29;20056;-88
2021/10/28 04:46:41;;;;;;;8.23;5.75;;;7.80;99.90;;;;;;4845536;29;20041;-88
2021/10/28 04:49:08;;;;;;;9.80;6.13;;;7.80;99.90;;;;;;4843677;29;20497;-87
2021/10/28 04:51:34;;;;;;;7.90;6.05;;;7.80;99.90;;;;;;4846454;29;20053;-89
2021/10/28 04:54:01;;;;;;;10.18;6.90;;;7.80;99.90;;;;;;4860017;29;20501;-88
2021/10/28 04:56:30;;;;;;;9.50;5.72;;;7.80;99.90;;;;;;4845414;29;20057;-88
2021/10/28 04:58:57;;;;;;;11.63;6.78;;;7.80;99.90;;;;;;4843695;29;20069;-88
2021/10/28 05:01:25;;;;;;;13.32;7.22;;;7.80;99.90;;;;;;4860536;29;20636;-88
2021/10/28 05:03:52;;;;;;;12.73;7.07;;;7.80;99.90;;;;;;4860582;29;20520;-88
2021/10/28 05:06:18;;;;;;;6.55;5.55;;;7.80;99.90;;;;;;4859536;29;20072;-87
2021/10/28 05:08:45;;;;;;;9.82;6.88;;;7.70;99.90;;;;;;4831643;29;20052;-87
2021/10/28 05:11:16;;;;;;;9.55;7.03;;;7.70;99.90;;;;;;4844211;29;20042;-87
2021/10/28 05:13:42;;;;;;;9.65;7.13;;;7.70;99.90;;;;;;4843130;29;20041;-86
2021/10/28 05:16:09;;;;;;;10.50;7.30;;;7.70;99.90;;;;;;4847726;29;20042;-87
2021/10/28 05:18:41;;;;;;;12.20;7.45;;;7.60;99.90;;;;;;4870944;29;21217;-87
2021/10/28 05:21:09;;;;;;;10.68;6.97;;;7.60;99.90;;;;;;4864235;29;20049;-87
2021/10/28 05:23:37;;;;;;;13.43;7.28;;;7.70;99.90;;;;;;4843225;29;20057;-88
2021/10/28 05:26:03;;;;;;;11.60;7.72;;;7.70;99.90;;;;;;4865563;29;20060;-87
2021/10/28 05:28:30;;;;;;;14.20;9.45;;;7.60;99.90;;;;;;4843936;29;20521;-87
2021/10/28 05:30:56;;;;;;;12.40;7.57;;;7.60;99.90;;;;;;4811997;29;20058;-88
2021/10/28 05:33:23;;;;;;;13.18;8.40;;;7.60;99.90;;;;;;4829552;29;20394;-88
2021/10/28 05:35:49;;;;;;;13.85;8.88;;;7.60;99.90;;;;;;4843186;29;20038;-87
2021/10/28 05:38:16;;;;;;;15.43;9.45;;;7.50;99.90;;;;;;4858526;29;20494;-86
2021/10/28 05:40:43;;;;;;;13.88;8.43;;;7.50;99.90;;;;;;4862632;29;20405;-80
2021/10/28 05:43:10;;;;;;;13.70;9.80;;;7.50;99.90;;;;;;4842580;29;20072;-86
2021/10/28 05:45:37;;;;;;;14.35;8.48;;;7.50;99.90;;;;;;4845239;29;20045;-90
2021/10/28 05:48:05;;;;;;;13.20;8.65;;;7.50;99.90;;;;;;4830499;29;20414;-83
2021/10/28 05:50:32;;;;;;;14.48;8.38;;;7.50;99.90;;;;;;4844930;29;20049;-84
2021/10/28 05:53:00;;;;;;;10.30;7.70;;;7.50;99.90;;;;;;4842245;29;20054;-86
2021/10/28 05:55:27;;;;;;;14.77;9.57;;;7.50;99.90;;;;;;4845644;29;20045;-84
2021/10/28 05:57:54;;;;;;;13.68;8.93;;;7.50;99.90;;;;;;4846207;29;20038;-84
2021/10/28 06:00:23;;;;;;;13.88;9.27;;;7.40;99.90;;;;;;4857605;29;20044;-85
2021/10/28 06:02:49;;;;;;;14.13;9.65;;;7.40;99.90;;;;;;4857624;29;20042;-86
2021/10/28 06:05:16;;;;;;;11.18;7.90;;;7.40;99.90;;;;;;4859759;29;20037;-85
2021/10/28 06:07:43;;;;;;;11.38;7.63;;;7.40;99.90;;;;;;4858144;29;20053;-86
2021/10/28 06:10:11;;;;;;;13.65;7.53;;;7.40;99.90;;;;;;4858756;29;20038;-86
2021/10/28 06:12:43;;;;;;;11.73;7.43;;;7.30;99.90;;;;;;4859225;29;20104;-85
2021/10/28 06:15:11;;;;;;;11.13;7.38;;;7.30;99.90;;;;;;4858097;29;20038;-86
2021/10/28 06:17:45;;;;;;;11.35;7.40;;;7.30;99.90;;;;;;4835699;29;20048;-86
2021/10/28 06:20:11;;;;;;;13.65;8.25;;;7.30;99.90;;;;;;4857858;29;20385;-86
2021/10/28 06:22:38;;;;;;;12.70;7.80;;;7.30;99.90;;;;;;4842204;29;20048;-85
2021/10/28 06:25:05;;;;;;;12.70;8.23;;;7.20;99.90;;;;;;4859360;29;20048;-86
2021/10/28 06:27:31;;;;;;;15.73;9.23;;;7.30;99.90;;;;;;4858594;29;20041;-84
2021/10/28 06:30:40;;;;;;;10.57;7.18;;;7.20;99.90;;;;;;4842224;29;20042;-86
2021/10/28 06:33:13;;;;;;;10.38;7.18;;;7.30;99.90;;;;;;4858589;29;20044;-85
2021/10/28 06:35:42;;;;;;;;;;;7.20;99.90;;;;;;4860427;29;20048;-85
2021/10/28 06:38:54;;;;;;;15.27;10.10;;;7.20;99.90;;;;;;4856979;29;19920;-80
2021/10/28 06:41:33;;;;;;;14.02;7.72;;;7.20;99.90;;;;;;4824759;29;20041;-84
2021/10/28 06:44:00;;;;;;;13.60;9.57;;;7.20;99.90;;;;;;4840467;29;20029;-84
2021/10/28 06:46:28;;;;;;;13.25;8.93;;;7.30;99.90;;;;;;4844398;29;20038;-81
2021/10/28 06:48:55;;;;;;;12.70;8.73;;;7.30;99.90;;;;;;4830081;29;20052;-83
2021/10/28 06:51:23;;;;;;;13.23;8.13;;;7.30;99.90;;;;;;4843688;29;20037;-84
2021/10/28 06:54:07;;;;;;;11.52;7.75;;;7.30;99.90;;;;;;4842075;29;20046;-80
2021/10/28 07:04:32;;;;;;;12.85;9.07;;;7.50;99.90;;;;;;4857159;29;20060;-84
2021/10/28 07:06:59;;;;;;;12.30;8.40;;;7.50;99.90;;;;;;4826598;29;20041;-85
2021/10/28 07:09:37;;;;;;;10.82;7.93;;;7.60;99.90;;;;;;4859341;29;20148;-84
2021/10/28 07:14:34;;;;;;;11.07;7.38;;;7.60;99.90;;;;;;4843428;29;20053;-84
2021/10/28 07:17:23;;;;;;;11.52;7.40;;;7.70;99.90;;;;;;4833472;29;20072;-87
2021/10/28 07:22:39;;;;;;;12.43;8.60;;;7.90;99.90;;;;;;4848110;29;20037;-87
2021/10/28 07:25:27;;;;;;;14.95;10.13;;;7.90;99.90;;;;;;4804797;29;20053;-88
2021/10/28 07:33:34;;;;;;;17.27;9.63;;;8.20;99.90;;;;;;4859791;29;20045;-87
2021/10/28 07:36:32;;;;;;;12.77;9.00;;;8.30;99.90;;;;;;4845353;29;20045;-86
2021/10/28 07:56:21;;;;;;;17.55;10.68;;;8.90;99.90;;;;;;4860958;29;20033;-84
2021/10/28 08:28:51;;;;;;;17.23;11.13;;;9.80;99.90;;;;;;4846234;29;20049;-86
2021/10/28 08:31:27;;;;;;;18.10;12.13;;;9.90;99.90;;;;;;4842917;29;20493;-84
2021/10/28 08:33:54;;;;;;;20.75;12.95;;;10.00;99.90;;;;;;4797568;29;20054;-84
2021/10/28 08:36:29;;;;;;;19.83;14.13;;;10.10;99.90;;;;;;4855822;29;20493;-84
2021/10/28 08:38:56;;;;;;;24.58;15.90;;;10.10;99.90;;;;;;4858132;29;20037;-83
2021/10/28 08:41:24;;;;;;;23.10;14.65;;;10.20;99.90;;;;;;4862550;29;20057;-85
2021/10/28 08:43:54;;;;;;;23.52;14.55;;;10.20;99.90;;;;;;4843021;29;20041;-83
2021/10/28 08:46:28;;;;;;;20.77;13.07;;;10.30;99.90;;;;;;4815684;29;20056;-86
2021/10/28 08:48:58;;;;;;;20.35;13.38;;;10.40;99.90;;;;;;4859921;29;20075;-84
2021/10/28 08:51:37;;;;;;;22.52;15.18;;;10.50;99.90;;;;;;4861305;29;20037;-85
2021/10/28 08:54:42;;;;;;;20.15;13.60;;;10.60;99.90;;;;;;4861048;29;20049;-84
2021/10/28 08:57:18;;;;;;;20.63;13.98;;;10.70;99.90;;;;;;4830990;29;20060;-85
2021/10/28 09:25:43;;;;;;;22.45;14.38;;;11.70;99.90;;;;;;4844537;29;20040;-85
2021/10/28 09:28:32;;;;;;;;;;;11.80;99.90;;;;;;4844417;29;20049;-85
2021/10/28 09:31:21;;;;;;;18.13;12.52;;;11.90;99.90;;;;;;4843617;29;19927;-85
2021/10/28 09:48:45;;;;;;;15.02;11.45;;;12.60;99.90;;;;;;4858215;29;20370;-85
2021/10/28 09:51:17;;;;;;;;;;;12.80;99.90;;;;;;4843082;29;20037;-86
2021/10/28 09:59:43;;;;;;;16.08;11.00;;;13.60;99.90;;;;;;4866877;29;20053;-85
2021/10/28 10:05:09;;;;;;;16.35;10.27;;;14.20;99.90;;;;;;4840892;29;20041;-88
2021/10/28 10:07:36;;;;;;;12.35;9.65;;;14.50;99.90;;;;;;4860024;29;20036;-87
2021/10/28 10:10:03;;;;;;;13.95;8.95;;;14.80;99.90;;;;;;4842160;29;20476;-79
2021/10/28 10:12:31;;;;;;;10.38;8.52;;;15.10;99.90;;;;;;4857160;29;20042;-81
2021/10/28 10:15:02;;;;;;;11.25;9.48;;;15.40;99.90;;;;;;4833503;29;20044;-80
2021/10/28 10:17:28;;;;;;;11.95;10.63;;;15.70;99.90;;;;;;4860015;29;20037;-80
2021/10/28 10:19:57;;;;;;;14.00;10.73;;;16.10;99.90;;;;;;4843209;29;20044;-80
2021/10/28 12:28:59;;;;;;;16.92;14.15;;;16.50;99.90;;;;;;4843746;29;20524;-78
2021/10/28 12:51:19;;;;;;;16.88;15.00;;;15.60;99.90;;;;;;4859941;29;20045;-79
2021/10/28 13:51:34;;;;;;;10.07;7.30;;;15.40;99.90;;;;;;4873221;29;20060;-78
2021/10/28 15:30:16;;;;;;;6.15;4.95;;;14.50;99.90;;;;;;4859273;29;20054;-79
2021/10/28 15:35:32;;;;;;;6.90;4.55;;;14.40;99.90;;;;;;4859523;29;20619;-82
2021/10/28 15:38:11;;;;;;;4.32;2.90;;;14.30;99.90;;;;;;4850848;29;20040;-81
2021/10/28 15:41:02;;;;;;;8.93;4.80;;;14.30;99.90;;;;;;4835447;29;20493;-81
2021/10/28 15:54:59;;;;;;;7.40;4.75;;;14.00;99.90;;;;;;4844066;29;20498;-81
2021/10/28 16:23:26;;;;;;;6.10;4.30;;;13.40;99.90;;;;;;4861854;29;20434;-81
2021/10/28 16:25:52;;;;;;;6.13;4.45;;;13.40;99.90;;;;;;4849768;29;20048;-80
2021/10/28 16:28:19;;;;;;;8.63;4.63;;;13.30;99.90;;;;;;4860388;29;20491;-77
2021/10/28 16:30:46;;;;;;;6.68;4.20;;;13.30;99.90;;;;;;4861285;29;20045;-85
2021/10/28 16:33:14;;;;;;;7.38;5.20;;;13.20;99.90;;;;;;4827294;29;20048;-83
2021/10/28 16:35:45;;;;;;;8.10;4.47;;;13.10;99.90;;;;;;4862613;29;20042;-84
2021/10/28 16:38:12;;;;;;;8.45;5.15;;;13.00;99.90;;;;;;4827982;29;20037;-85
2021/10/28 16:40:39;;;;;;;6.60;4.40;;;13.00;99.90;;;;;;4858477;29;20041;-81
2021/10/28 16:43:07;;;;;;;5.78;4.50;;;12.90;99.90;;;;;;4860947;29;20044;-85
2021/10/28 16:45:34;;;;;;;9.02;6.20;;;12.90;99.90;;;;;;4861757;29;20052;-86
2021/10/28 16:48:01;;;;;;;10.52;6.13;;;12.90;99.90;;;;;;4828946;29;20077;-85
2021/10/28 16:50:27;;;;;;;7.03;4.97;;;12.80;99.90;;;;;;4859910;29;20042;-86
2021/10/28 16:52:54;;;;;;;8.90;4.85;;;12.80;99.90;;;;;;4817571;29;20417;-85
2021/10/28 16:55:20;;;;;;;9.15;4.25;;;12.70;99.90;;;;;;4868183;29;20382;-84
2021/10/28 16:57:47;;;;;;;7.53;4.53;;;12.70;99.90;;;;;;4861993;29;20646;-86
2021/10/28 17:00:16;;;;;;;7.10;4.70;;;12.60;99.90;;;;;;4858772;29;20045;-85
2021/10/28 17:02:43;;;;;;;5.45;3.97;;;12.60;99.90;;;;;;4828267;29;20669;-86
2021/10/28 17:05:14;;;;;;;8.40;5.22;;;12.50;99.90;;;;;;4850022;29;20042;-82
2021/10/28 17:07:41;;;;;;;11.23;6.72;;;12.50;99.90;;;;;;4861790;29;20034;-77
2021/10/28 17:10:08;;;;;;;10.88;6.95;;;12.50;99.90;;;;;;4863111;29;20064;-82
2021/10/28 17:12:36;;;;;;;8.40;6.13;;;12.40;99.90;;;;;;4842779;29;20045;-79
2021/10/28 17:15:04;;;;;;;10.90;7.25;;;12.50;99.90;;;;;;4864499;29;20038;-85
2021/10/28 17:17:34;;;;;;;10.57;7.00;;;12.50;99.90;;;;;;4843557;29;20049;-84
2021/10/28 17:20:14;;;;;;;9.13;7.07;;;12.40;99.90;;;;;;4813805;29;20046;-85
2021/10/28 17:22:47;;;;;;;11.15;7.80;;;12.40;99.90;;;;;;4830222;29;20733;-84
2021/10/28 17:25:26;;;;;;;10.27;6.28;;;12.40;99.90;;;;;;4817932;29;20056;-85
2021/10/28 17:28:25;;;;;;;7.90;5.95;;;12.30;99.90;;;;;;4845774;29;20064;-85
2021/10/28 17:31:11;;;;;;;;;;;;;;;;;;;;;
2021/10/28 17:33:57;;;;;;;9.07;7.00;;;12.30;99.90;;;;;;4857093;29;20052;-84
2021/10/28 17:36:33;;;;;;;10.57;7.47;;;12.20;99.90;;;;;;4816234;29;20912;-85
2021/10/28 17:39:03;;;;;;;9.18;7.13;;;12.20;99.90;;;;;;4824616;29;20046;-84
2021/10/28 17:41:34;;;;;;;11.35;7.95;;;12.10;99.90;;;;;;4826716;29;20045;-82
2021/10/28 17:44:04;;;;;;;10.18;7.47;;;12.10;99.90;;;;;;4824374;29;20141;-85
2021/10/28 17:46:37;;;;;;;10.55;7.85;;;12.10;99.90;;;;;;4828477;29;20044;-82
2021/10/28 17:50:02;;;;;;;;;;;;;;;;;;;;;
2021/10/28 17:53:15;;;;;;;12.82;8.18;;;11.90;99.90;;;;;;4795203;29;20056;-80
2021/10/28 17:55:42;;;;;;;10.00;7.78;;;11.90;99.90;;;;;;4829953;29;20076;-83
2021/10/28 17:58:09;;;;;;;11.45;8.57;;;11.90;99.90;;;;;;4858181;29;20797;-79
2021/10/28 18:00:39;;;;;;;13.18;8.18;;;11.80;99.90;;;;;;4855281;29;20442;-81
2021/10/28 18:03:09;;;;;;;9.57;7.63;;;11.80;99.90;;;;;;4815466;29;20053;-80
2021/10/28 18:05:38;;;;;;;16.83;9.68;;;11.80;99.90;;;;;;4856065;29;20385;-80
2021/10/28 18:08:31;;;;;;;12.35;9.07;;;11.80;99.90;;;;;;4847295;29;20038;-82
2021/10/28 18:11:19;;;;;;;13.07;9.23;;;11.80;99.90;;;;;;4842813;29;20466;-84
2021/10/28 18:13:48;;;;;;;13.30;10.10;;;11.80;99.90;;;;;;4850818;29;20046;-80
2021/10/28 18:16:54;;;;;;;13.43;9.52;;;11.80;99.90;;;;;;4861405;29;20029;-81
2021/10/28 18:22:35;;;;;;;11.63;8.95;;;11.70;99.90;;;;;;4909034;29;20044;-89
2021/10/28 18:25:06;;;;;;;11.52;8.98;;;11.70;99.90;;;;;;4824226;29;20057;-87
2021/10/28 18:27:33;;;;;;;13.85;8.18;;;11.70;99.90;;;;;;4843641;29;20054;-87
2021/10/28 18:30:03;;;;;;;12.98;8.75;;;11.60;99.90;;;;;;4810984;29;20065;-86
2021/10/28 18:32:32;;;;;;;17.42;10.15;;;11.60;99.90;;;;;;4859115;29;20041;-86
2021/10/28 18:34:59;;;;;;;11.45;8.05;;;11.60;99.90;;;;;;4809728;29;20048;-86
2021/10/28 18:37:38;;;;;;;10.07;8.50;;;11.60;99.90;;;;;;4826329;29;20038;-83
2021/10/28 18:40:14;;;;;;;11.30;8.18;;;11.50;99.90;;;;;;4823836;29;20037;-88
2021/10/28 18:42:45;;;;;;;10.73;8.20;;;11.60;99.90;;;;;;4841384;29;20075;-90
2021/10/28 18:45:14;;;;;;;13.63;9.15;;;11.50;99.90;;;;;;4841185;29;20045;-89
2021/10/28 18:47:46;;;;;;;11.63;9.30;;;11.50;99.90;;;;;;4841675;29;20044;-90
2021/10/28 18:50:19;;;;;;;11.25;8.95;;;11.40;99.90;;;;;;4831575;29;20512;-90
2021/10/28 18:52:48;;;;;;;14.65;10.05;;;11.50;99.90;;;;;;4843151;29;20606;-85
2021/10/28 18:55:20;;;;;;;12.68;9.35;;;11.40;99.90;;;;;;4859012;29;20040;-84
2021/10/28 18:57:53;;;;;;;10.73;8.77;;;11.40;99.90;;;;;;4843542;29;20048;-81
2021/10/28 19:00:20;;;;;;;;;;;11.40;99.90;;;;;;4857292;29;20037;-81
2021/10/28 19:02:46;;;;;;;11.85;9.32;;;11.30;99.90;;;;;;4854851;29;20279;-82
2021/10/28 19:05:13;;;;;;;11.27;10.02;;;11.40;99.90;;;;;;4823396;29;20063;-81
2021/10/28 19:07:45;;;;;;;12.60;9.30;;;11.40;99.90;;;;;;4839517;29;20053;-81
2021/10/28 19:10:13;;;;;;;12.07;8.68;;;11.30;99.90;;;;;;4843288;29;20053;-81
2021/10/28 19:12:44;;;;;;;12.55;9.98;;;11.30;99.90;;;;;;4842595;29;20044;-81
2021/10/28 19:15:11;;;;;;;11.52;9.65;;;11.30;99.90;;;;;;4863178;29;20037;-81
2021/10/28 19:17:39;;;;;;;13.13;9.23;;;11.20;99.90;;;;;;4860319;29;20038;-81
2021/10/28 19:20:11;;;;;;;13.75;9.32;;;11.20;99.90;;;;;;4846747;29;20041;-81
2021/10/28 19:22:41;;;;;;;10.48;8.13;;;11.20;99.90;;;;;;4854718;29;20041;-80
2021/10/28 19:25:10;;;;;;;11.47;8.60;;;11.20;99.90;;;;;;4847590;29;20069;-84
2021/10/28 19:27:37;;;;;;;15.82;10.52;;;11.20;99.90;;;;;;4861167;29;20285;-83
2021/10/28 19:33:32;;;;;;;12.43;9.75;;;11.10;99.90;;;;;;4856922;29;20042;-85
2021/10/28 19:36:02;;;;;;;12.18;9.27;;;11.10;99.90;;;;;;4845449;29;20045;-86
2021/10/28 19:46:46;;;;;;;14.45;10.60;;;10.90;99.90;;;;;;4883197;29;20532;-88
2021/10/28 19:49:15;;;;;;;10.57;7.13;;;10.90;99.90;;;;;;4828713;29;20058;-83
2021/10/28 19:51:42;;;;;;;15.27;10.57;;;10.90;99.90;;;;;;4835933;29;20068;-81
2021/10/28 19:54:15;;;;;;;12.73;9.65;;;10.90;99.90;;;;;;4862880;29;20513;-85
2021/10/28 19:56:47;;;;;;;12.82;10.40;;;10.80;99.90;;;;;;4861183;29;20041;-87
2021/10/28 19:59:19;;;;;;;12.55;10.77;;;10.80;99.90;;;;;;4829619;29;20488;-82
2021/10/28 20:01:52;;;;;;;12.68;9.90;;;10.70;99.90;;;;;;4829980;29;20048;-85
2021/10/28 20:21:00;;;;;;;13.32;10.52;;;10.50;99.90;;;;;;4841471;29;20037;-85
2021/10/28 20:23:55;;;;;;;13.98;11.32;;;10.50;99.90;;;;;;4826721;29;20197;-85
2021/10/28 20:26:31;;;;;;;13.55;9.25;;;10.50;99.90;;;;;;4842755;29;20064;-85
2021/10/28 20:29:31;;;;;;;9.23;7.85;;;10.50;99.90;;;;;;4827797;29;20048;-83
2021/10/28 20:32:15;;;;;;;14.70;9.63;;;10.50;99.90;;;;;;4823223;29;20057;-83
2021/10/28 20:37:42;;;;;;;11.32;8.30;;;10.40;99.90;;;;;;4841407;29;20060;-84
2021/10/28 20:40:12;;;;;;;15.93;11.95;;;10.30;99.90;;;;;;4842660;29;20030;-84
2021/10/28 20:42:53;;;;;;;16.42;12.50;;;10.30;99.90;;;;;;4811700;29;20064;-84
2021/10/28 20:45:29;;;;;;;19.67;15.15;;;10.30;99.90;;;;;;4805856;29;20057;-84
2021/10/28 20:47:56;;;;;;;15.57;12.25;;;10.20;99.90;;;;;;4859473;29;20053;-84
2021/10/28 20:50:32;;;;;;;15.20;11.55;;;10.30;99.90;;;;;;4828229;29;20058;-84
2021/10/28 20:53:09;;;;;;;13.80;11.00;;;10.20;99.90;;;;;;4827739;29;20061;-85
2021/10/28 20:55:51;;;;;;;12.90;10.88;;;10.20;99.90;;;;;;4843416;29;20877;-85
2021/10/28 20:58:18;;;;;;;15.00;11.88;;;10.20;99.90;;;;;;4845149;29;20036;-85
2021/10/28 21:00:44;;;;;;;14.15;10.63;;;10.20;99.90;;;;;;4828257;29;20059;-82
2021/10/28 21:03:11;;;;;;;13.57;10.23;;;10.10;99.90;;;;;;4842191;29;20041;-82
2021/10/28 21:05:37;;;;;;;14.80;11.45;;;10.10;99.90;;;;;;4857953;29;20053;-81
2021/10/28 21:08:04;;;;;;;12.05;10.13;;;10.10;99.90;;;;;;4856128;29;20033;-81
2021/10/28 21:10:31;;;;;;;12.82;10.40;;;10.00;99.90;;;;;;4844294;29;20347;-82
2021/10/28 21:12:59;;;;;;;13.32;10.18;;;10.00;99.90;;;;;;4842165;29;20060;-82
2021/10/28 21:15:37;;;;;;;14.52;10.77;;;10.00;99.90;;;;;;4841960;29;20045;-83
2021/10/28 21:18:06;;;;;;;15.55;12.10;;;9.90;99.90;;;;;;4825784;29;20052;-82
2021/10/28 21:20:32;;;;;;;14.40;11.90;;;9.90;99.90;;;;;;4832329;29;20038;-81
2021/10/28 21:23:00;;;;;;;15.95;11.00;;;9.90;99.90;;;;;;4841349;29;20398;-82
2021/10/28 21:25:30;;;;;;;15.07;10.50;;;9.80;99.90;;;;;;4843172;29;20822;-82
2021/10/28 21:27:57;;;;;;;12.68;9.82;;;9.80;99.90;;;;;;4826392;29;20046;-82
2021/10/28 21:30:24;;;;;;;15.73;10.75;;;9.70;99.90;;;;;;4862459;29;20038;-83
2021/10/28 21:32:50;;;;;;;12.85;10.60;;;9.80;99.90;;;;;;4842107;29;20050;-82
2021/10/28 21:35:17;;;;;;;14.48;10.57;;;9.70;99.90;;;;;;4842742;29;20033;-82
2021/10/28 21:37:44;;;;;;;14.88;11.27;;;9.70;99.90;;;;;;4827067;29;20042;-83
2021/10/28 21:40:15;;;;;;;15.73;11.25;;;9.60;99.90;;;;;;4857320;29;20030;-83
2021/10/28 21:42:45;;;;;;;13.45;10.90;;;9.60;99.90;;;;;;4840598;29;20030;-87
2021/10/28 21:45:15;;;;;;;15.68;11.07;;;9.60;99.90;;;;;;4840792;29;20496;-83
2021/10/28 21:47:47;;;;;;;14.88;10.95;;;9.50;99.90;;;;;;4855256;29;20033;-84
2021/10/28 21:50:15;;;;;;;13.93;9.83;;;9.50;99.90;;;;;;4852391;29;20038;-84
2021/10/28 21:52:47;;;;;;;16.80;12.60;;;9.50;99.90;;;;;;4827297;29;20044;-84
2021/10/28 22:03:50;;;;;;;17.05;10.73;;;9.30;99.90;;;;;;4844128;29;19916;-88
2021/10/28 22:26:38;;;;;;;16.70;11.15;;;9.00;99.90;;;;;;4831643;29;20719;-90
2021/10/28 22:29:05;;;;;;;17.23;12.70;;;9.10;99.90;;;;;;4834287;29;20037;-91
2021/10/28 22:31:32;;;;;;;18.13;13.27;;;9.10;99.90;;;;;;4828533;29;20037;-91
2021/10/28 22:33:59;;;;;;;17.48;12.35;;;9.00;99.90;;;;;;4827111;29;20052;-91
2021/10/28 22:36:37;;;;;;;16.15;11.57;;;9.00;99.90;;;;;;4832008;29;20044;-91
2021/10/28 22:39:19;;;;;;;16.95;13.00;;;9.00;99.90;;;;;;4845906;29;20034;-90
2021/10/28 22:41:45;;;;;;;16.65;12.52;;;8.90;99.90;;;;;;4815007;29;20038;-91
2021/10/28 22:44:13;;;;;;;18.27;13.35;;;8.90;99.90;;;;;;4832615;29;20041;-89
2021/10/28 22:46:39;;;;;;;19.50;12.88;;;8.90;99.90;;;;;;4826844;29;20493;-91
2021/10/28 22:49:06;;;;;;;18.83;13.43;;;8.90;99.90;;;;;;4828600;29;20489;-90